createdAt,value
2023-02-14T00:03:49.223Z,1035.21
2023-02-14T00:33:49.236Z,1035.17
2023-02-14T01:03:49.224Z,1035.19
2023-02-14T01:33:49.268Z,1035.1
2023-02-14T02:03:49.233Z,1035.17
2023-02-14T02:33:49.253Z,1034.93
2023-02-14T03:03:49.252Z,1034.95
2023-02-14T03:33:49.248Z,1035.01
2023-02-14T04:03:49.304Z,1035
2023-02-14T04:33:49.251Z,1035.01
2023-02-14T05:03:49.259Z,1034.68
2023-02-14T05:33:49.284Z,1034.72
2023-02-14T06:03:49.306Z,1034.49
2023-02-14T06:33:49.301Z,1034.53
2023-02-14T07:03:49.280Z,1034.73
2023-02-14T07:33:49.303Z,1034.74
2023-02-14T08:03:49.306Z,1034.73
2023-02-14T08:33:49.294Z,1034.52
2023-02-14T09:03:49.370Z,1034.62
2023-02-14T09:33:49.309Z,1034.4
2023-02-14T10:03:49.311Z,1034.34
2023-02-14T10:33:49.311Z,1034.36
2023-02-14T11:03:49.417Z,1034.12
2023-02-14T11:33:49.321Z,1033.9
2023-02-14T12:03:49.402Z,1033.64
2023-02-14T12:33:50.613Z,1033.26
2023-02-14T13:03:49.344Z,1032.94
2023-02-14T13:33:49.349Z,1032.7
2023-02-14T14:03:49.395Z,1032.37
2023-02-14T14:33:49.368Z,1032.33
2023-02-14T15:03:49.393Z,1032.14
2023-02-14T15:33:49.379Z,1031.84
2023-02-14T16:03:49.417Z,1031.53
2023-02-14T16:33:49.392Z,1031.61
2023-02-14T17:03:49.393Z,1031.81
2023-02-14T17:33:49.401Z,1031.85
2023-02-14T18:03:49.394Z,1031.9
2023-02-14T18:33:49.404Z,1031.76
2023-02-14T19:03:49.389Z,1031.76
2023-02-14T19:33:49.419Z,1031.64
2023-02-14T20:03:49.404Z,1031.5
2023-02-14T20:33:49.396Z,1031.41
2023-02-14T21:03:49.479Z,1031.16
2023-02-14T21:33:49.422Z,1030.85
2023-02-14T22:03:49.425Z,1030.88
2023-02-14T22:33:49.442Z,1030.76
2023-02-14T23:03:49.441Z,1030.5
2023-02-14T23:33:49.450Z,1030.23
